createdAt,value
2023-03-19T00:01:08.193Z,94.38
2023-03-19T00:03:42.920Z,94.33
2023-03-19T00:06:16.545Z,93.71
2023-03-19T00:08:50.064Z,93.71
2023-03-19T00:11:23.770Z,94.14
2023-03-19T00:13:56.642Z,94.24
2023-03-19T00:16:29.431Z,94.32
2023-03-19T00:19:02.862Z,94.38
2023-03-19T00:21:36.082Z,94.54
2023-03-19T00:24:10.341Z,94.53
2023-03-19T00:26:43.197Z,94.53
2023-03-19T00:29:16.612Z,94.48
2023-03-19T00:31:49.236Z,94.70
2023-03-19T00:34:23.311Z,94.92
2023-03-19T00:36:57.583Z,95.09
2023-03-19T00:39:31.095Z,95.06
2023-03-19T00:42:04.641Z,94.81
2023-03-19T00:44:38.577Z,94.90
2023-03-19T00:47:13.204Z,95.01
2023-03-19T00:49:46.396Z,95.07
2023-03-19T00:52:19.928Z,94.95
2023-03-19T00:54:53.538Z,95.08
2023-03-19T00:57:26.465Z,95.13
2023-03-19T00:59:59.348Z,95.23
2023-03-19T01:02:33.896Z,95.29
2023-03-19T01:05:08.498Z,95.57
2023-03-19T01:07:43.298Z,95.81
2023-03-19T01:10:17.459Z,96.05
2023-03-19T01:12:51.021Z,96.05
2023-03-19T01:15:23.978Z,96.02
2023-03-19T01:17:57.513Z,96.32
2023-03-19T01:20:32.178Z,96.54
2023-03-19T01:23:05.804Z,96.46
2023-03-19T01:25:40.684Z,96.51
2023-03-19T01:28:13.705Z,96.45
2023-03-19T01:30:46.571Z,96.37
2023-03-19T01:33:23.115Z,96.25
2023-03-19T01:36:02.454Z,96.12
2023-03-19T01:38:37.980Z,96.03
2023-03-19T01:41:12.465Z,95.95
2023-03-19T01:43:45.564Z,95.87
2023-03-19T01:46:39.121Z,95.70
2023-03-19T01:49:31.892Z,95.78
2023-03-19T01:52:10.774Z,95.75
2023-03-19T01:54:46.853Z,95.56
2023-03-19T01:57:37.985Z,95.54
2023-03-19T02:00:19.397Z,95.74
2023-03-19T02:02:55.401Z,95.81
2023-03-19T02:05:33.245Z,95.79
2023-03-19T02:08:12.963Z,96.00
2023-03-19T02:10:48.472Z,96.28
2023-03-19T02:13:21.496Z,96.29
2023-03-19T02:15:57.114Z,96.57
2023-03-19T02:18:31.948Z,96.72
2023-03-19T02:21:17.933Z,96.78
2023-03-19T02:24:08.451Z,97.20
2023-03-19T02:26:47.354Z,97.33
2023-03-19T02:29:21.952Z,97.49
2023-03-19T02:31:55.574Z,97.39
2023-03-19T02:34:34.863Z,97.53
2023-03-19T02:37:18.437Z,97.71
2023-03-19T02:40:08.298Z,97.78
2023-03-19T02:42:41.505Z,97.91
2023-03-19T02:45:15.779Z,98.11
2023-03-19T02:47:49.439Z,98.45
2023-03-19T02:50:23.297Z,98.61
2023-03-19T02:52:56.628Z,98.63
2023-03-19T02:55:29.957Z,98.74
2023-03-19T02:58:02.666Z,98.89
2023-03-19T03:00:36.723Z,99.05
2023-03-19T03:03:10.197Z,98.93
2023-03-19T03:05:43.118Z,99.17
2023-03-19T03:08:16.303Z,99.22
2023-03-19T03:10:49.583Z,99.17
2023-03-19T03:13:23.117Z,99.16
2023-03-19T03:15:56.370Z,99.38
2023-03-19T03:18:29.959Z,99.56
2023-03-19T03:21:04.181Z,99.94
2023-03-19T03:23:37.698Z,100.00
2023-03-19T03:26:10.635Z,100.00
2023-03-19T03:28:44.203Z,100.00
2023-03-19T03:31:17.072Z,100.00
2023-03-19T03:33:50.712Z,100.00
2023-03-19T03:36:23.881Z,100.00
2023-03-19T03:38:56.911Z,100.00
2023-03-19T03:41:29.881Z,100.00
2023-03-19T03:44:02.900Z,100.00
2023-03-19T03:46:38.053Z,100.00
2023-03-19T03:49:12.707Z,100.00
2023-03-19T03:51:45.834Z,100.00
2023-03-19T03:54:18.667Z,100.00
2023-03-19T03:56:51.482Z,100.00
2023-03-19T03:59:25.648Z,100.00
2023-03-19T04:01:59.329Z,100.00
2023-03-19T04:04:32.730Z,100.00
2023-03-19T04:07:07.000Z,100.00
2023-03-19T04:09:43.066Z,100.00
2023-03-19T04:12:16.198Z,100.00
2023-03-19T04:14:49.706Z,100.00
2023-03-19T04:17:24.125Z,100.00
2023-03-19T04:19:57.689Z,100.00
2023-03-19T04:22:31.136Z,100.00
2023-03-19T04:25:05.253Z,100.00
2023-03-19T04:27:38.239Z,100.00
2023-03-19T04:30:13.946Z,100.00
2023-03-19T04:32:47.783Z,100.00
2023-03-19T04:35:23.224Z,100.00
2023-03-19T04:37:56.949Z,100.00
2023-03-19T04:40:29.973Z,100.00
2023-03-19T04:43:03.744Z,100.00
2023-03-19T04:45:38.567Z,100.00
2023-03-19T04:48:12.174Z,100.00
2023-03-19T04:50:47.699Z,100.00
2023-03-19T04:53:22.218Z,100.00
2023-03-19T04:55:55.061Z,100.00
2023-03-19T04:58:27.968Z,100.00
2023-03-19T05:01:02.756Z,100.00
2023-03-19T05:03:55.675Z,100.00
2023-03-19T05:06:29.973Z,100.00
2023-03-19T05:09:05.432Z,100.00
2023-03-19T05:11:38.388Z,100.00
2023-03-19T05:14:13.888Z,100.00
2023-03-19T05:17:04.950Z,100.00
2023-03-19T05:19:46.838Z,100.00
2023-03-19T05:22:20.811Z,100.00
2023-03-19T05:24:54.285Z,100.00
2023-03-19T05:27:27.544Z,100.00
2023-03-19T05:30:13.596Z,100.00
2023-03-19T05:32:47.940Z,100.00
2023-03-19T05:35:23.073Z,100.00
2023-03-19T05:37:57.089Z,100.00
2023-03-19T05:40:30.484Z,100.00
2023-03-19T05:43:05.232Z,100.00
2023-03-19T05:45:39.896Z,100.00
2023-03-19T05:48:15.824Z,100.00
2023-03-19T05:50:49.458Z,100.00
2023-03-19T05:53:24.551Z,100.00
2023-03-19T05:56:01.867Z,100.00
2023-03-19T05:58:36.526Z,100.00
2023-03-19T06:01:09.261Z,100.00
2023-03-19T06:03:42.267Z,100.00
2023-03-19T06:06:16.792Z,100.00
2023-03-19T06:08:51.426Z,100.00
2023-03-19T06:11:33.373Z,100.00
2023-03-19T06:14:11.937Z,100.00
2023-03-19T06:16:46.240Z,100.00
2023-03-19T06:19:19.906Z,100.00
2023-03-19T06:21:53.364Z,100.00
2023-03-19T06:24:26.520Z,100.00
2023-03-19T06:26:59.309Z,100.00
2023-03-19T06:29:32.124Z,100.00
2023-03-19T06:32:07.762Z,100.00
2023-03-19T06:34:43.260Z,100.00
2023-03-19T06:37:17.280Z,100.00
2023-03-19T06:39:50.110Z,100.00
2023-03-19T06:42:23.942Z,100.00
2023-03-19T06:44:57.338Z,100.00
2023-03-19T06:47:30.719Z,100.00
2023-03-19T06:50:03.825Z,99.83
2023-03-19T06:52:37.547Z,99.61
2023-03-19T06:55:12.501Z,99.47
2023-03-19T06:57:45.237Z,99.45
2023-03-19T07:00:19.706Z,98.99
2023-03-19T07:02:52.689Z,98.59
2023-03-19T07:05:26.439Z,98.15
2023-03-19T07:07:59.204Z,97.70
2023-03-19T07:10:32.379Z,97.28
2023-03-19T07:13:08.500Z,97.03
2023-03-19T07:15:41.853Z,96.59
2023-03-19T07:18:15.037Z,96.52
2023-03-19T07:20:49.187Z,96.33
2023-03-19T07:23:24.427Z,96.32
2023-03-19T07:25:57.205Z,96.32
2023-03-19T07:28:30.510Z,96.40
2023-03-19T07:31:04.097Z,96.49
2023-03-19T07:33:37.508Z,96.22
2023-03-19T07:36:11.538Z,96.16
2023-03-19T07:38:44.346Z,96.24
2023-03-19T07:41:18.267Z,96.24
2023-03-19T07:43:51.332Z,95.75
2023-03-19T07:46:24.832Z,95.39
2023-03-19T07:48:57.588Z,95.21
2023-03-19T07:51:30.722Z,94.88
2023-03-19T07:54:04.205Z,94.37
2023-03-19T07:56:37.554Z,93.66
2023-03-19T07:59:11.874Z,92.59
2023-03-19T08:01:44.506Z,91.79
2023-03-19T08:04:17.788Z,91.59
2023-03-19T08:06:51.011Z,91.26
2023-03-19T08:09:24.351Z,91.05
2023-03-19T08:11:57.982Z,90.85
2023-03-19T08:14:31.609Z,90.86
2023-03-19T08:17:05.258Z,90.28
2023-03-19T08:19:38.183Z,89.90
2023-03-19T08:22:12.012Z,89.83
2023-03-19T08:24:45.061Z,89.17
2023-03-19T08:27:17.906Z,88.90
2023-03-19T08:29:51.234Z,89.04
2023-03-19T08:32:25.112Z,88.66
2023-03-19T08:34:58.477Z,87.58
2023-03-19T08:37:31.520Z,87.52
2023-03-19T08:40:05.068Z,87.52
2023-03-19T08:42:42.491Z,87.38
2023-03-19T08:45:16.631Z,87.08
2023-03-19T08:47:49.016Z,86.73
2023-03-19T08:50:22.516Z,86.48
2023-03-19T08:52:56.668Z,86.86
2023-03-19T08:55:28.745Z,87.32
2023-03-19T08:58:02.046Z,86.91
2023-03-19T09:00:35.198Z,86.95
2023-03-19T09:03:08.489Z,87.33
2023-03-19T09:05:41.868Z,87.18
2023-03-19T09:08:16.033Z,86.90
2023-03-19T09:10:51.437Z,87.14
2023-03-19T09:13:25.256Z,86.87
2023-03-19T09:15:58.209Z,87.32
2023-03-19T09:18:31.718Z,87.59
2023-03-19T09:21:05.138Z,87.48
2023-03-19T09:23:38.358Z,87.41
2023-03-19T09:26:11.121Z,86.96
2023-03-19T09:28:44.575Z,86.82
2023-03-19T09:31:18.038Z,86.31
2023-03-19T09:33:51.259Z,86.25
2023-03-19T09:36:24.301Z,86.18
2023-03-19T09:38:57.810Z,86.16
2023-03-19T09:41:57.655Z,86.13
2023-03-19T09:44:34.393Z,85.98
2023-03-19T09:47:28.081Z,85.76
2023-03-19T09:50:14.762Z,85.77
2023-03-19T09:53:03.532Z,85.48
2023-03-19T09:55:44.429Z,85.21
2023-03-19T09:58:30.728Z,85.23
2023-03-19T10:01:05.016Z,85.48
2023-03-19T10:03:55.846Z,85.52
2023-03-19T10:06:40.660Z,85.12
2023-03-19T10:09:58.216Z,84.97
2023-03-19T10:13:06.950Z,84.83
2023-03-19T10:15:41.243Z,84.21
2023-03-19T10:18:29.305Z,83.80
2023-03-19T10:21:13.145Z,83.92
2023-03-19T10:24:03.817Z,83.82
2023-03-19T10:26:37.578Z,83.77
2023-03-19T10:29:23.344Z,83.39
2023-03-19T10:32:21.685Z,83.33
2023-03-19T10:34:56.166Z,83.53
2023-03-19T10:37:32.610Z,83.50
2023-03-19T10:40:07.622Z,83.34
2023-03-19T10:43:06.838Z,83.42
2023-03-19T10:45:41.190Z,83.13
2023-03-19T10:48:18.365Z,82.62
2023-03-19T10:51:01.437Z,82.70
2023-03-19T10:53:38.612Z,82.66
2023-03-19T10:56:24.378Z,82.58
2023-03-19T10:59:10.864Z,82.93
2023-03-19T11:01:44.550Z,82.99
2023-03-19T11:04:22.493Z,82.80
2023-03-19T11:06:57.819Z,82.67
2023-03-19T11:09:37.410Z,82.41
2023-03-19T11:12:24.808Z,82.42
2023-03-19T11:14:59.313Z,81.96
2023-03-19T11:17:44.452Z,81.41
2023-03-19T11:20:36.649Z,81.04
2023-03-19T11:23:16.849Z,80.95
2023-03-19T11:25:56.130Z,80.77
2023-03-19T11:28:30.658Z,80.67
2023-03-19T11:31:30.212Z,80.80
2023-03-19T11:34:24.580Z,80.29
2023-03-19T11:37:00.991Z,80.10
2023-03-19T11:39:54.425Z,79.55
2023-03-19T11:43:00.574Z,79.79
2023-03-19T11:45:44.043Z,79.88
2023-03-19T11:48:36.471Z,79.83
2023-03-19T11:51:32.283Z,79.70
2023-03-19T11:54:25.417Z,79.87
2023-03-19T11:57:13.951Z,80.00
2023-03-19T12:00:08.674Z,80.26
2023-03-19T12:03:12.207Z,80.22
2023-03-19T12:06:02.380Z,80.40
2023-03-19T12:08:57.585Z,80.25
2023-03-19T12:11:52.616Z,80.38
2023-03-19T12:15:08.889Z,80.54
2023-03-19T12:17:49.467Z,80.60
2023-03-19T12:20:38.467Z,81.21
2023-03-19T12:23:35.930Z,81.41
2023-03-19T12:26:21.535Z,81.61
2023-03-19T12:29:32.936Z,81.85
2023-03-19T12:32:38.275Z,82.24
2023-03-19T12:35:18.251Z,82.29
2023-03-19T12:38:13.790Z,82.50
2023-03-19T12:40:54.470Z,82.73
2023-03-19T12:43:35.153Z,82.91
2023-03-19T12:46:18.013Z,83.08
2023-03-19T12:49:01.375Z,83.30
2023-03-19T12:51:38.207Z,83.64
2023-03-19T12:54:19.953Z,83.57
2023-03-19T12:57:09.681Z,83.39
2023-03-19T13:00:03.179Z,83.65
2023-03-19T13:02:59.114Z,83.61
2023-03-19T13:06:02.613Z,83.70
2023-03-19T13:08:40.612Z,83.82
2023-03-19T13:11:34.087Z,83.96
2023-03-19T13:14:29.909Z,83.70
2023-03-19T13:17:21.681Z,83.69
2023-03-19T13:19:57.259Z,83.89
2023-03-19T13:22:37.538Z,83.72
2023-03-19T13:25:13.544Z,83.58
2023-03-19T13:27:55.546Z,83.62
2023-03-19T13:30:29.531Z,83.65
2023-03-19T13:33:08.540Z,83.74
2023-03-19T13:35:54.971Z,83.86
2023-03-19T13:38:37.227Z,83.92
2023-03-19T13:41:37.254Z,84.16
2023-03-19T13:44:45.406Z,84.53
2023-03-19T13:47:38.063Z,84.49
2023-03-19T13:50:27.679Z,84.68
2023-03-19T13:53:35.182Z,84.72
2023-03-19T13:56:26.486Z,84.61
2023-03-19T13:58:56.598Z,84.54
2023-03-19T14:01:38.801Z,84.32
2023-03-19T14:04:32.969Z,84.29
2023-03-19T14:07:14.333Z,84.37
2023-03-19T14:10:06.133Z,84.63
2023-03-19T14:12:42.640Z,84.65
2023-03-19T14:15:20.014Z,84.75
2023-03-19T14:17:58.682Z,84.52
2023-03-19T14:20:41.150Z,84.44
2023-03-19T14:23:40.621Z,84.12
2023-03-19T14:26:26.336Z,84.25
2023-03-19T14:29:05.742Z,84.58
2023-03-19T14:31:51.679Z,84.75
2023-03-19T14:34:37.820Z,84.92
2023-03-19T14:37:28.374Z,85.01
2023-03-19T14:40:20.647Z,85.22
2023-03-19T14:43:07.478Z,85.51
2023-03-19T14:46:04.403Z,85.72
2023-03-19T14:48:48.788Z,85.96
2023-03-19T14:51:48.654Z,86.29
2023-03-19T14:54:37.508Z,86.32
2023-03-19T14:57:28.933Z,86.76
2023-03-19T15:00:02.720Z,86.79
2023-03-19T15:02:52.673Z,86.88
2023-03-19T15:05:34.359Z,86.86
2023-03-19T15:08:13.065Z,87.11
2023-03-19T15:11:13.501Z,87.43
2023-03-19T15:14:15.243Z,87.67
2023-03-19T15:17:12.709Z,87.89
2023-03-19T15:19:46.599Z,88.18
2023-03-19T15:22:34.089Z,88.33
2023-03-19T15:25:15.539Z,88.48
2023-03-19T15:27:48.392Z,88.58
2023-03-19T15:30:27.181Z,88.91
2023-03-19T15:33:13.947Z,89.04
2023-03-19T15:35:38.227Z,89.25
2023-03-19T15:38:13.269Z,89.41
2023-03-19T15:40:46.468Z,89.49
2023-03-19T15:43:20.006Z,89.60
2023-03-19T15:45:54.753Z,89.59
2023-03-19T15:48:32.117Z,89.89
2023-03-19T15:51:06.951Z,90.22
2023-03-19T15:53:40.117Z,90.51
2023-03-19T15:56:15.904Z,90.63
2023-03-19T15:58:53.285Z,91.01
2023-03-19T16:01:27.710Z,91.17
2023-03-19T16:04:07.742Z,91.39
2023-03-19T16:06:42.218Z,91.58
2023-03-19T16:09:35.441Z,91.78
2023-03-19T16:12:29.526Z,92.14
2023-03-19T16:15:02.993Z,92.32
2023-03-19T16:17:37.439Z,92.41
2023-03-19T16:20:14.737Z,92.40
2023-03-19T16:23:02.275Z,92.30
2023-03-19T16:25:36.606Z,92.64
2023-03-19T16:28:19.285Z,92.79
2023-03-19T16:30:53.452Z,92.76
2023-03-19T16:33:29.200Z,92.98
2023-03-19T16:36:02.553Z,93.12
2023-03-19T16:38:38.871Z,93.32
2023-03-19T16:41:32.588Z,93.47
2023-03-19T16:44:20.336Z,93.59
2023-03-19T16:46:53.153Z,93.76
2023-03-19T16:49:27.310Z,93.95
2023-03-19T16:51:59.972Z,94.09
2023-03-19T16:54:32.960Z,94.09
2023-03-19T16:57:05.814Z,94.20
2023-03-19T16:59:39.034Z,94.35
2023-03-19T17:02:15.712Z,94.42
2023-03-19T17:04:49.076Z,94.50
2023-03-19T17:07:22.196Z,94.55
2023-03-19T17:09:56.152Z,94.48
2023-03-19T17:12:28.940Z,94.51
2023-03-19T17:15:02.431Z,94.35
2023-03-19T17:17:35.791Z,94.52
2023-03-19T17:20:12.589Z,94.63
2023-03-19T17:22:45.840Z,94.60
2023-03-19T17:25:19.499Z,94.61
2023-03-19T17:27:53.325Z,94.53
2023-03-19T17:30:28.707Z,94.62
2023-03-19T17:33:01.806Z,94.71
2023-03-19T17:35:35.596Z,94.93
2023-03-19T17:38:11.190Z,95.17
2023-03-19T17:40:44.145Z,95.30
2023-03-19T17:43:18.309Z,95.51
2023-03-19T17:45:51.542Z,95.36
2023-03-19T17:48:27.548Z,95.42
2023-03-19T17:51:03.174Z,95.66
2023-03-19T17:53:36.003Z,95.94
2023-03-19T17:56:11.999Z,96.33
2023-03-19T17:58:47.543Z,96.67
2023-03-19T18:01:29.838Z,97.08
2023-03-19T18:04:03.064Z,97.32
2023-03-19T18:06:38.221Z,97.45
2023-03-19T18:09:25.028Z,97.48
2023-03-19T18:11:57.938Z,97.47
2023-03-19T18:14:31.179Z,97.50
2023-03-19T18:17:05.624Z,97.58
2023-03-19T18:19:41.027Z,97.65
2023-03-19T18:22:17.474Z,97.90
2023-03-19T18:24:50.770Z,98.20
2023-03-19T18:27:25.157Z,98.32
2023-03-19T18:29:58.679Z,98.56
2023-03-19T18:32:33.892Z,98.74
2023-03-19T18:35:07.904Z,98.83
2023-03-19T18:37:41.089Z,98.84
2023-03-19T18:40:19.954Z,99.00
2023-03-19T18:42:54.239Z,99.18
2023-03-19T18:45:31.310Z,99.23
2023-03-19T18:48:04.194Z,99.27
2023-03-19T18:50:37.278Z,99.39
2023-03-19T18:53:12.571Z,99.55
2023-03-19T18:55:46.393Z,99.75
2023-03-19T18:58:24.291Z,99.93
2023-03-19T19:00:57.808Z,100.00
2023-03-19T19:03:31.935Z,100.00
2023-03-19T19:06:05.333Z,100.00
2023-03-19T19:08:38.575Z,100.00
2023-03-19T19:11:13.575Z,100.00
2023-03-19T19:13:56.168Z,100.00
2023-03-19T19:16:36.547Z,100.00
2023-03-19T19:19:23.490Z,100.00
2023-03-19T19:21:56.471Z,100.00
2023-03-19T19:24:29.337Z,100.00
2023-03-19T19:27:03.255Z,100.00
2023-03-19T19:29:37.609Z,100.00
2023-03-19T19:32:20.647Z,100.00
2023-03-19T19:34:54.136Z,100.00
2023-03-19T19:37:26.667Z,100.00
2023-03-19T19:39:59.365Z,100.00
2023-03-19T19:42:32.302Z,100.00
2023-03-19T19:45:07.448Z,100.00
2023-03-19T19:47:42.284Z,100.00
2023-03-19T19:50:22.793Z,100.00
2023-03-19T19:52:58.247Z,100.00
2023-03-19T19:55:31.938Z,100.00
2023-03-19T19:58:06.843Z,100.00
2023-03-19T20:00:41.045Z,100.00
2023-03-19T20:03:26.952Z,100.00
2023-03-19T20:06:01.135Z,100.00
2023-03-19T20:08:34.655Z,100.00
2023-03-19T20:11:25.140Z,100.00
2023-03-19T20:13:57.953Z,100.00
2023-03-19T20:16:31.408Z,100.00
2023-03-19T20:19:05.078Z,100.00
2023-03-19T20:21:38.080Z,100.00
2023-03-19T20:24:11.826Z,100.00
2023-03-19T20:26:44.980Z,100.00
2023-03-19T20:29:17.973Z,100.00
2023-03-19T20:31:51.543Z,100.00
2023-03-19T20:34:38.519Z,100.00
2023-03-19T20:36:58.790Z,100.00
2023-03-19T20:39:31.728Z,100.00
2023-03-19T20:42:04.659Z,100.00
2023-03-19T20:44:38.206Z,100.00
2023-03-19T20:47:20.853Z,100.00
2023-03-19T20:49:58.224Z,100.00
2023-03-19T20:52:31.745Z,100.00
2023-03-19T20:55:06.166Z,100.00
2023-03-19T20:57:39.150Z,100.00
2023-03-19T21:00:25.454Z,100.00
2023-03-19T21:03:01.717Z,100.00
2023-03-19T21:05:39.886Z,100.00
2023-03-19T21:08:25.179Z,100.00
2023-03-19T21:11:07.352Z,100.00
2023-03-19T21:13:41.641Z,100.00
2023-03-19T21:16:24.832Z,100.00
2023-03-19T21:18:59.418Z,100.00
2023-03-19T21:21:36.930Z,100.00
2023-03-19T21:24:19.663Z,100.00
2023-03-19T21:26:54.204Z,100.00
2023-03-19T21:29:31.599Z,100.00
2023-03-19T21:32:06.597Z,100.00
2023-03-19T21:34:40.113Z,100.00
2023-03-19T21:37:13.083Z,100.00
2023-03-19T21:39:46.668Z,100.00
2023-03-19T21:42:21.258Z,100.00
2023-03-19T21:44:58.177Z,100.00
2023-03-19T21:47:31.366Z,100.00
2023-03-19T21:50:04.274Z,100.00
2023-03-19T21:52:56.290Z,100.00
2023-03-19T21:55:16.687Z,100.00
2023-03-19T21:57:49.997Z,100.00
2023-03-19T22:00:23.100Z,100.00
2023-03-19T22:02:56.000Z,100.00
2023-03-19T22:05:30.898Z,100.00
2023-03-19T22:08:03.707Z,100.00
2023-03-19T22:10:37.185Z,100.00
2023-03-19T22:13:34.526Z,100.00
2023-03-19T22:16:13.200Z,100.00
2023-03-19T22:18:48.793Z,100.00
2023-03-19T22:21:24.353Z,100.00
2023-03-19T22:23:58.352Z,100.00
2023-03-19T22:26:35.064Z,100.00
2023-03-19T22:29:26.200Z,100.00
2023-03-19T22:32:00.907Z,100.00
2023-03-19T22:34:36.210Z,100.00
2023-03-19T22:37:28.817Z,100.00
2023-03-19T22:40:01.568Z,100.00
2023-03-19T22:42:34.675Z,100.00
2023-03-19T22:45:09.439Z,100.00
2023-03-19T22:47:43.251Z,100.00
2023-03-19T22:50:28.390Z,100.00
2023-03-19T22:53:01.368Z,100.00
2023-03-19T22:55:37.171Z,100.00
2023-03-19T22:58:11.495Z,100.00
2023-03-19T23:00:45.101Z,100.00
2023-03-19T23:03:28.787Z,100.00
2023-03-19T23:06:10.530Z,100.00
2023-03-19T23:08:42.149Z,100.00
2023-03-19T23:11:15.021Z,100.00
2023-03-19T23:13:48.503Z,100.00
2023-03-19T23:16:25.717Z,100.00
2023-03-19T23:18:58.500Z,100.00
2023-03-19T23:21:31.753Z,100.00
2023-03-19T23:24:04.746Z,100.00
2023-03-19T23:26:38.117Z,100.00
2023-03-19T23:29:24.258Z,100.00
2023-03-19T23:31:57.882Z,100.00
2023-03-19T23:34:37.276Z,100.00
2023-03-19T23:37:07.158Z,100.00
2023-03-19T23:39:41.396Z,100.00
2023-03-19T23:42:16.490Z,100.00
2023-03-19T23:44:50.257Z,100.00
2023-03-19T23:47:23.167Z,100.00
2023-03-19T23:49:55.881Z,100.00
2023-03-19T23:52:32.048Z,100.00
2023-03-19T23:55:04.944Z,100.00
2023-03-19T23:57:42.187Z,100.00
